aviador You're here:

PAWG Decoded Metar

WRANGELL in AK, USA
Report Time2017-08-18 10:22:00
UTC Time2017-08-18 10:47:55
Flight Rules vfr VFR
Wind230° at 03 kt
W.Decomp.*RWY 28: 1.0 kt HW 2.8 kt LCW
W.Rank230° ranks 23
Current wind is below 230° avg. (5.1)
Visibility9999 m
Phenomena:Light Rain
Clouds:Scattered 010 Hf
Overcast 037 Hf
Expected CloudBase > 800 ft AGL from Temp-Dew spread
Ceiling3,700 ft
Temp12°C (ISA -3)
Dew Point10°C (88% RH)
AAT11.0°C
QNH1010 hPa
Density Alt-46 ft
Elevation36 ft
Report Wrong Elevation
Raw Report
PAWG 181022Z AUTO 23003KT 10SM -RA SCT010 OVC037 12/10 A2982=

Extra information for PAWG:More info

Metar Taf Metar & Taf Last 4 Metars F.Rules Stats Wind Profile Meteogram Temp Stats Airport Information Weather charts Add Link Nearby VenuesMetar ALERT Operation Metar Decoded Social comments

AIRNAV info for PAWG